createdAt,value
2019-02-11T04:52:48.715Z,42.80
2019-02-11T04:55:40.554Z,42.40
2019-02-11T04:58:32.637Z,43.10
2019-02-11T05:01:25.040Z,43.10
2019-02-11T05:04:21.516Z,42.90
2019-02-11T05:07:14.273Z,43.00
2019-02-11T05:10:06.562Z,42.90
2019-02-11T05:12:59.757Z,42.60
2019-02-11T05:15:52.387Z,42.20
2019-02-11T05:18:50.222Z,42.90
2019-02-11T05:21:42.911Z,42.20
2019-02-11T05:24:57.614Z,42.40
2019-02-11T05:27:50.313Z,42.20
2019-02-11T05:30:46.669Z,41.70
2019-02-11T05:33:42.997Z,41.80
2019-02-11T05:39:55.162Z,41.80
2019-02-11T05:42:51.909Z,41.60
2019-02-11T05:45:46.627Z,41.40
2019-02-11T05:48:45.052Z,41.50
2019-02-11T05:51:49.186Z,41.80
2019-02-11T05:55:23.854Z,41.50
2019-02-11T05:58:18.249Z,41.50
2019-02-11T06:01:10.096Z,41.20
2019-02-11T06:04:02.146Z,40.90
2019-02-11T06:06:54.719Z,41.00
2019-02-11T06:10:00.678Z,41.50
2019-02-11T06:13:08.421Z,41.60
2019-02-11T06:16:08.213Z,41.70
2019-02-11T06:19:02.896Z,41.90
2019-02-11T06:22:10.515Z,42.30
2019-02-11T06:25:37.398Z,42.30
2019-02-11T06:28:35.903Z,42.50
2019-02-11T06:31:33.950Z,42.50
2019-02-11T06:34:34.029Z,42.50
2019-02-11T06:37:30.512Z,42.50
2019-02-11T06:40:23.396Z,42.20
2019-02-11T06:43:25.541Z,42.60
2019-02-11T06:46:26.643Z,42.00
2019-02-11T06:49:31.736Z,41.60
2019-02-11T06:53:00.351Z,43.00
2019-02-11T06:55:53.475Z,43.20
2019-02-11T06:58:54.839Z,43.90
2019-02-11T07:01:51.734Z,44.10
2019-02-11T07:04:50.664Z,44.40
2019-02-11T07:07:43.927Z,44.60
2019-02-11T07:10:38.366Z,44.90
2019-02-11T07:14:03.152Z,45.30
2019-02-11T07:17:06.581Z,45.60
2019-02-11T07:20:01.840Z,45.70
2019-02-11T07:22:59.312Z,45.90
2019-02-11T07:26:16.582Z,46.10
2019-02-11T07:36:07.289Z,46.60
2019-02-11T07:39:02.603Z,45.30
2019-02-11T07:42:46.430Z,46.70
2019-02-11T07:46:19.807Z,47.20
2019-02-11T07:49:17.790Z,47.30
2019-02-11T07:52:34.187Z,47.50
2019-02-11T07:55:26.227Z,47.50
2019-02-11T07:58:27.986Z,47.30
2019-02-11T08:01:32.837Z,47.50
2019-02-11T08:04:28.848Z,47.00
2019-02-11T08:07:23.800Z,47.70
2019-02-11T08:10:19.712Z,47.90
2019-02-11T08:13:19.315Z,48.00
2019-02-11T08:16:13.927Z,48.10
2019-02-11T08:19:16.675Z,48.00
2019-02-11T08:22:10.108Z,48.00
2019-02-11T08:25:06.574Z,48.40
2019-02-11T08:28:00.420Z,48.10
2019-02-11T08:30:57.185Z,48.10
2019-02-11T08:33:51.608Z,47.30
2019-02-11T08:36:45.793Z,47.40
2019-02-11T08:39:40.783Z,45.30
2019-02-11T08:42:45.949Z,44.30
2019-02-11T08:45:47.140Z,43.60
2019-02-11T08:48:38.876Z,43.30
2019-02-11T08:51:33.102Z,43.60
2019-02-11T08:54:26.002Z,43.50
2019-02-11T08:57:21.440Z,43.10
2019-02-11T09:00:15.471Z,41.70
2019-02-11T09:03:25.023Z,41.80
2019-02-11T09:06:18.407Z,42.60
2019-02-11T09:09:16.104Z,41.70
2019-02-11T09:12:12.750Z,41.40
2019-02-11T09:15:06.437Z,41.70
2019-02-11T09:18:03.824Z,41.00
2019-02-11T09:21:11.624Z,40.70
2019-02-11T09:24:25.665Z,40.40
2019-02-11T09:27:19.085Z,40.60
2019-02-11T09:30:13.719Z,40.30
2019-02-11T09:33:09.939Z,40.30
2019-02-11T09:36:08.381Z,40.20
2019-02-11T09:39:02.184Z,40.30
2019-02-11T09:41:58.965Z,40.30
2019-02-11T09:44:55.813Z,41.30
2019-02-11T09:47:53.631Z,39.90
2019-02-11T09:51:02.297Z,40.40
2019-02-11T09:53:51.756Z,40.00
2019-02-11T09:56:48.113Z,40.00
2019-02-11T09:59:41.194Z,39.80
2019-02-11T10:02:34.487Z,39.20
2019-02-11T10:05:33.533Z,39.40
2019-02-11T10:08:31.946Z,39.20
2019-02-11T10:11:24.489Z,38.50
2019-02-11T10:14:17.943Z,39.20
2019-02-11T10:17:10.903Z,39.00
2019-02-11T10:20:04.870Z,39.40
2019-02-11T10:23:01.560Z,39.10
2019-02-11T10:25:59.423Z,38.90
2019-02-11T10:28:52.442Z,39.50
2019-02-11T10:31:46.411Z,39.20
2019-02-11T10:34:41.042Z,39.10
2019-02-11T10:37:35.124Z,39.30
2019-02-11T10:40:27.430Z,39.60
2019-02-11T10:43:21.307Z,39.70
2019-02-11T10:46:20.849Z,38.60
2019-02-11T10:49:37.523Z,38.10
2019-02-11T10:52:30.265Z,38.10
2019-02-11T10:55:24.665Z,39.00
2019-02-11T10:58:21.000Z,39.10
2019-02-11T11:01:14.132Z,39.20
2019-02-11T11:04:08.032Z,38.80
2019-02-11T11:13:02.743Z,39.00
2019-02-11T11:15:57.044Z,39.30
2019-02-11T11:18:50.898Z,39.30
2019-02-11T11:21:48.374Z,39.70
2019-02-11T11:24:42.146Z,39.30
2019-02-11T11:27:34.635Z,39.20
2019-02-11T11:30:31.925Z,38.70
2019-02-11T11:33:27.876Z,38.80
2019-02-11T11:36:22.298Z,38.90
2019-02-11T11:39:25.321Z,38.20
2019-02-11T11:42:21.111Z,37.60
2019-02-11T11:45:18.125Z,38.10
2019-02-11T11:48:14.550Z,37.70
2019-02-11T11:51:09.296Z,37.60
2019-02-11T11:54:06.385Z,37.20
2019-02-11T11:57:07.393Z,37.70
2019-02-11T12:00:04.294Z,37.60
2019-02-11T12:03:06.338Z,37.80
2019-02-11T12:06:02.705Z,37.90
2019-02-11T12:08:58.969Z,38.20
2019-02-11T12:11:51.207Z,38.00
2019-02-11T12:14:44.933Z,38.30
2019-02-11T12:17:37.733Z,38.70
2019-02-11T12:20:37.491Z,38.50
2019-02-11T12:24:47.804Z,38.50
2019-02-11T12:27:37.057Z,38.90
2019-02-11T12:34:56.492Z,39.10
2019-02-11T12:37:37.991Z,39.30
2019-02-11T12:40:47.900Z,39.50
2019-02-11T12:43:55.462Z,39.60
2019-02-11T12:47:12.538Z,39.60
2019-02-11T12:49:47.013Z,39.60
2019-02-11T12:52:39.469Z,39.70
2019-02-11T12:55:31.925Z,40.10
2019-02-11T12:58:24.165Z,40.00
2019-02-11T13:01:17.702Z,40.20
2019-02-11T13:04:10.331Z,40.30
2019-02-11T13:07:05.630Z,40.20
2019-02-11T13:09:59.085Z,40.40
2019-02-11T13:12:52.246Z,39.90
2019-02-11T13:16:00.227Z,40.50
2019-02-11T13:18:39.659Z,40.60
2019-02-11T13:21:32.109Z,39.90
2019-02-11T13:24:24.471Z,39.80
2019-02-11T13:27:17.527Z,39.30
2019-02-11T13:30:12.969Z,38.90
2019-02-11T13:33:07.121Z,38.50
2019-02-11T13:35:59.181Z,38.20
2019-02-11T13:38:51.827Z,38.10
2019-02-11T13:41:44.365Z,39.10
2019-02-11T13:44:36.873Z,38.20
2019-02-11T13:47:29.307Z,38.10
2019-02-11T13:50:22.706Z,38.00
2019-02-11T13:53:14.916Z,37.90
2019-02-11T13:56:08.061Z,38.10
2019-02-11T13:59:00.355Z,38.60
2019-02-11T14:01:52.422Z,39.30
2019-02-11T14:04:44.746Z,39.50
2019-02-11T14:07:36.917Z,39.70
2019-02-11T14:10:28.959Z,39.80
2019-02-11T14:13:20.964Z,40.00
2019-02-11T14:16:13.068Z,40.20
2019-02-11T14:19:05.007Z,40.50
2019-02-11T14:21:57.048Z,40.60
2019-02-11T14:24:49.400Z,40.70
2019-02-11T14:27:42.650Z,41.00
2019-02-11T14:30:34.929Z,41.00
2019-02-11T14:33:27.387Z,41.20
2019-02-11T14:36:20.139Z,41.20
2019-02-11T14:39:14.027Z,41.50
2019-02-11T14:42:06.343Z,41.40
2019-02-11T14:44:58.869Z,41.60
2019-02-11T14:47:52.153Z,41.60
2019-02-11T14:50:44.881Z,42.00
2019-02-11T14:53:38.078Z,41.90
2019-02-11T14:56:30.383Z,42.00
2019-02-11T14:59:22.681Z,42.10
2019-02-11T15:02:14.791Z,42.10
2019-02-11T15:05:07.420Z,42.20
2019-02-11T15:07:59.433Z,42.30
2019-02-11T15:10:52.358Z,42.20
2019-02-11T15:13:44.965Z,42.30
2019-02-11T15:16:37.605Z,42.40
2019-02-11T15:19:29.739Z,42.50
2019-02-11T15:22:21.705Z,42.50
2019-02-11T15:25:15.141Z,42.50
2019-02-11T15:28:06.991Z,42.60
2019-02-11T15:30:59.491Z,42.60
2019-02-11T15:33:51.545Z,42.80
2019-02-11T15:36:43.289Z,42.80
2019-02-11T15:39:35.660Z,42.80
2019-02-11T15:42:28.587Z,42.90
2019-02-11T15:45:20.394Z,43.00
2019-02-11T15:48:12.446Z,43.00
2019-02-11T15:51:06.783Z,43.00
2019-02-11T15:53:59.433Z,43.10
2019-02-11T15:56:52.574Z,43.00
2019-02-11T15:59:44.594Z,43.00
2019-02-11T16:02:36.939Z,43.00
2019-02-11T16:05:29.018Z,43.10
2019-02-11T16:08:21.353Z,43.30
2019-02-11T16:11:14.336Z,43.10
2019-02-11T16:14:06.672Z,43.40
2019-02-11T16:16:59.093Z,43.00
2019-02-11T16:19:51.974Z,43.50
2019-02-11T16:22:44.978Z,43.50
2019-02-11T16:25:37.067Z,43.40
2019-02-11T16:28:28.878Z,43.50
2019-02-11T16:31:23.453Z,43.50
2019-02-11T16:34:15.767Z,43.50
2019-02-11T16:37:08.235Z,43.40
2019-02-11T16:40:00.692Z,43.40
2019-02-11T16:42:52.582Z,43.40
2019-02-11T16:45:44.296Z,43.70
2019-02-11T16:48:36.445Z,43.80
2019-02-11T16:51:28.115Z,43.90
2019-02-11T16:54:20.227Z,43.80
2019-02-11T16:57:12.503Z,43.90
2019-02-11T17:00:04.687Z,43.80
2019-02-11T17:02:57.433Z,43.80
2019-02-11T17:05:49.295Z,43.80
2019-02-11T17:08:41.572Z,43.80
2019-02-11T17:11:33.588Z,43.70
2019-02-11T17:14:25.981Z,44.00
2019-02-11T17:17:18.079Z,44.00
2019-02-11T17:20:10.991Z,44.20
2019-02-11T17:23:02.798Z,44.10
2019-02-11T17:25:54.970Z,44.20
2019-02-11T17:28:47.065Z,44.20
2019-02-11T17:31:39.433Z,44.30
2019-02-11T17:34:32.316Z,44.40
2019-02-11T17:37:24.828Z,44.30
2019-02-11T17:40:16.840Z,44.20
2019-02-11T17:43:10.247Z,44.40
2019-02-11T17:46:02.978Z,44.30
2019-02-11T17:48:55.057Z,44.40
2019-02-11T17:51:47.456Z,44.50
2019-02-11T17:54:39.428Z,44.40
2019-02-11T17:57:31.356Z,44.30
2019-02-11T18:00:27.413Z,44.40
2019-02-11T18:03:20.012Z,44.50
2019-02-11T18:06:11.989Z,44.50
2019-02-11T18:09:03.839Z,44.70
2019-02-11T18:11:57.362Z,44.70
2019-02-11T18:14:49.639Z,44.60
2019-02-11T18:17:42.021Z,44.60
2019-02-11T18:20:34.061Z,44.70
2019-02-11T18:23:26.227Z,44.70
2019-02-11T18:26:18.249Z,44.80
2019-02-11T18:29:10.015Z,44.80
2019-02-11T18:32:01.981Z,44.70
2019-02-11T18:34:54.115Z,44.90
2019-02-11T18:37:46.100Z,44.80
2019-02-11T18:40:38.061Z,44.80
2019-02-11T18:43:30.122Z,44.90
2019-02-11T18:46:22.306Z,44.70
2019-02-11T18:49:14.590Z,44.40
2019-02-11T18:52:06.758Z,44.80
2019-02-11T18:54:58.691Z,44.40
2019-02-11T18:57:50.497Z,44.70
2019-02-11T19:00:43.360Z,44.50
2019-02-11T19:03:35.734Z,44.60
2019-02-11T19:06:27.905Z,45.00
2019-02-11T19:09:21.932Z,45.10
2019-02-11T19:12:14.156Z,45.00
2019-02-11T19:15:06.526Z,44.90
2019-02-11T19:17:59.523Z,44.90
2019-02-11T19:20:51.859Z,45.20
2019-02-11T19:23:44.072Z,44.90
2019-02-11T19:26:35.955Z,44.80
2019-02-11T19:29:28.067Z,44.80
2019-02-11T19:32:20.379Z,44.90
2019-02-11T19:35:13.153Z,45.00
2019-02-11T19:38:05.292Z,45.20
2019-02-11T19:40:57.736Z,45.20
2019-02-11T19:43:49.738Z,45.20
2019-02-11T19:46:41.772Z,45.10
2019-02-11T19:49:33.876Z,45.30
2019-02-11T19:52:25.974Z,45.20
2019-02-11T19:55:17.766Z,45.10
2019-02-11T19:58:10.252Z,45.20
2019-02-11T20:01:02.244Z,45.10
2019-02-11T20:03:54.255Z,45.20
2019-02-11T20:06:46.550Z,45.10
2019-02-11T20:09:38.576Z,45.20
2019-02-11T20:12:31.259Z,45.20
2019-02-11T20:15:23.883Z,45.00
2019-02-11T20:18:15.936Z,45.00
2019-02-11T20:21:07.746Z,45.10
2019-02-11T20:23:59.792Z,45.20
2019-02-11T20:26:51.866Z,45.10
2019-02-11T20:29:43.526Z,45.00
2019-02-11T20:32:35.361Z,45.00
2019-02-11T20:35:27.530Z,44.90
2019-02-11T20:38:19.582Z,45.00
2019-02-11T20:41:11.681Z,44.90
2019-02-11T20:44:03.765Z,44.90
2019-02-11T20:46:55.768Z,44.80
2019-02-11T20:49:47.774Z,44.80
2019-02-11T20:52:39.727Z,45.40
2019-02-11T20:55:31.882Z,45.30
2019-02-11T20:58:24.169Z,44.80
2019-02-11T21:01:16.216Z,44.90
2019-02-11T21:04:08.422Z,44.50
2019-02-11T21:07:00.340Z,44.90
2019-02-11T21:09:52.470Z,44.70
2019-02-11T21:12:44.523Z,45.40
2019-02-11T21:15:36.796Z,44.80
2019-02-11T21:18:28.672Z,44.80
2019-02-11T21:21:20.900Z,45.20
2019-02-11T21:24:12.871Z,45.10
2019-02-11T21:27:05.183Z,45.20
2019-02-11T21:29:56.956Z,45.00
2019-02-11T21:32:49.091Z,45.40
2019-02-11T21:35:42.105Z,45.70
2019-02-11T21:38:33.971Z,45.60
2019-02-11T21:41:26.075Z,45.60
2019-02-11T21:44:18.105Z,45.80
2019-02-11T21:47:09.935Z,46.00
2019-02-11T21:50:02.014Z,46.00
2019-02-11T21:52:54.071Z,46.20
2019-02-11T21:55:46.022Z,46.30
2019-02-11T21:58:38.072Z,46.60
2019-02-11T22:01:30.163Z,46.50
2019-02-11T22:04:21.996Z,46.60
2019-02-11T22:07:14.102Z,46.80
2019-02-11T22:10:06.508Z,46.80
2019-02-11T22:12:58.621Z,46.90
2019-02-11T22:15:50.522Z,46.90
2019-02-11T22:18:42.526Z,46.90
2019-02-11T22:21:34.219Z,46.90
2019-02-11T22:24:26.004Z,46.90
2019-02-11T22:27:17.936Z,47.00
2019-02-11T22:30:11.070Z,47.00
2019-02-11T22:33:02.995Z,47.20
2019-02-11T22:35:54.983Z,47.20
2019-02-11T22:38:46.773Z,47.30
2019-02-11T22:41:38.575Z,47.40
2019-02-11T22:44:30.379Z,47.40
2019-02-11T22:47:22.543Z,47.40
2019-02-11T22:50:14.480Z,47.40
2019-02-11T22:53:06.500Z,47.50
2019-02-11T22:55:58.589Z,47.60
2019-02-11T22:58:52.617Z,47.70
2019-02-11T23:01:44.676Z,47.70
2019-02-11T23:04:36.491Z,47.70
2019-02-11T23:07:28.219Z,47.80
2019-02-11T23:10:20.215Z,47.70
2019-02-11T23:13:12.346Z,47.60
2019-02-11T23:16:04.084Z,47.50
2019-02-11T23:18:55.816Z,47.40
2019-02-11T23:21:47.797Z,47.40
2019-02-11T23:24:39.842Z,46.90
2019-02-11T23:27:31.756Z,47.00
2019-02-11T23:30:23.561Z,47.20
2019-02-11T23:33:15.517Z,47.30
2019-02-11T23:36:07.381Z,47.40
2019-02-11T23:38:59.163Z,47.10
2019-02-11T23:41:51.376Z,47.30
2019-02-11T23:44:43.334Z,47.30
2019-02-11T23:47:35.105Z,47.20
2019-02-11T23:50:27.205Z,47.00
2019-02-11T23:53:18.932Z,47.00
2019-02-11T23:56:10.730Z,47.10
2019-02-11T23:59:02.742Z,47.00
